createdAt,value
2019-02-18T00:02:29.477Z,-2.45
2019-02-18T00:07:33.035Z,-2.54
2019-02-18T00:12:36.574Z,-2.48
2019-02-18T00:17:39.986Z,-2.61
2019-02-18T00:22:43.406Z,-2.59
2019-02-18T00:27:46.835Z,-2.57
2019-02-18T00:32:50.241Z,-2.76
2019-02-18T00:37:53.639Z,-2.74
2019-02-18T00:42:57.103Z,-2.72
2019-02-18T00:48:00.556Z,-2.79
2019-02-18T00:53:04.221Z,-2.83
2019-02-18T00:58:07.462Z,-2.92
2019-02-18T01:03:11.065Z,-2.91
2019-02-18T01:08:14.591Z,-2.97
2019-02-18T01:13:18.095Z,-3.11
2019-02-18T01:18:21.581Z,-3.03
2019-02-18T01:23:26.030Z,-3.07
2019-02-18T01:28:29.672Z,-3.16
2019-02-18T01:33:33.234Z,-3.20
2019-02-18T01:38:36.644Z,-3.40
2019-02-18T01:43:40.167Z,-3.33
2019-02-18T01:48:43.564Z,-3.37
2019-02-18T01:53:47.036Z,-3.40
2019-02-18T01:58:50.563Z,-3.45
2019-02-18T02:03:53.990Z,-3.48
2019-02-18T02:08:57.460Z,-3.56
2019-02-18T02:14:00.887Z,-3.54
2019-02-18T02:19:04.389Z,-3.65
2019-02-18T02:24:07.811Z,-3.78
2019-02-18T02:29:11.220Z,-3.83
2019-02-18T02:34:15.212Z,-3.82
2019-02-18T02:39:18.635Z,-3.79
2019-02-18T02:44:22.169Z,-3.88
2019-02-18T02:49:25.594Z,-3.95
2019-02-18T02:54:29.158Z,-3.92
2019-02-18T02:59:32.554Z,-3.94
2019-02-18T03:04:36.022Z,-3.97
2019-02-18T03:09:39.443Z,-4.07
2019-02-18T03:14:42.997Z,-4.10
2019-02-18T03:19:46.495Z,-4.06
2019-02-18T03:25:01.158Z,-4.11
2019-02-18T03:30:23.613Z,-4.25
2019-02-18T03:35:27.028Z,-4.17
2019-02-18T03:40:30.617Z,-4.19
2019-02-18T03:45:34.036Z,-4.19
2019-02-18T03:50:37.596Z,-4.35
2019-02-18T03:55:41.017Z,-4.41
2019-02-18T04:00:44.454Z,-4.47
2019-02-18T04:05:47.968Z,-4.48
2019-02-18T04:10:51.592Z,-4.50
2019-02-18T04:15:57.011Z,-4.42
2019-02-18T04:21:00.475Z,-4.48
2019-02-18T04:26:03.979Z,-4.52
2019-02-18T04:31:07.382Z,-4.53
2019-02-18T04:36:11.913Z,-4.47
2019-02-18T04:41:15.408Z,-4.52
2019-02-18T04:46:19.058Z,-4.40
2019-02-18T04:51:22.465Z,-4.44
2019-02-18T04:56:25.939Z,-4.48
2019-02-18T05:01:29.451Z,-4.60
2019-02-18T05:06:33.134Z,-4.72
2019-02-18T05:11:36.754Z,-4.89
2019-02-18T05:16:40.229Z,-4.75
2019-02-18T05:21:43.799Z,-4.79
2019-02-18T05:26:47.581Z,-4.84
2019-02-18T05:31:53.204Z,-4.86
2019-02-18T05:36:56.681Z,-4.83
2019-02-18T05:42:00.099Z,-4.95
2019-02-18T05:47:03.722Z,-5.12
2019-02-18T05:52:07.121Z,-4.96
2019-02-18T05:57:10.851Z,-5.09
2019-02-18T06:02:15.531Z,-5.04
2019-02-18T06:07:19.130Z,-5.08
2019-02-18T06:12:22.629Z,-5.11
2019-02-18T06:17:26.477Z,-5.11
2019-02-18T06:22:30.218Z,-5.13
2019-02-18T06:27:33.735Z,-5.20
2019-02-18T06:32:37.156Z,-5.27
2019-02-18T06:37:40.578Z,-5.06
2019-02-18T06:42:44.151Z,-5.16
2019-02-18T06:47:47.645Z,-5.04
2019-02-18T06:52:51.248Z,-5.02
2019-02-18T06:58:00.110Z,-5.04
2019-02-18T07:05:09.974Z,-4.93
2019-02-18T07:10:18.551Z,-4.76
2019-02-18T07:15:22.104Z,-4.58
2019-02-18T07:20:25.654Z,-4.42
2019-02-18T07:25:29.114Z,-4.29
2019-02-18T07:30:32.616Z,-4.20
2019-02-18T07:35:36.120Z,-4.20
2019-02-18T07:40:39.624Z,-3.93
2019-02-18T07:45:43.120Z,-3.72
2019-02-18T07:50:46.548Z,-3.25
2019-02-18T07:55:49.990Z,-3.10
2019-02-18T08:00:53.484Z,-2.96
2019-02-18T08:05:56.905Z,-2.88
2019-02-18T08:11:00.414Z,-2.75
2019-02-18T08:16:03.979Z,-2.55
2019-02-18T08:21:07.037Z,-2.36
2019-02-18T08:26:10.469Z,-2.19
2019-02-18T08:31:13.974Z,-2.00
2019-02-18T08:36:17.462Z,-1.81
2019-02-18T08:41:20.950Z,-0.91
2019-02-18T08:46:24.366Z,-0.54
2019-02-18T08:51:27.800Z,-0.27
2019-02-18T08:56:31.319Z,-0.23
2019-02-18T09:01:34.854Z,0.04
2019-02-18T09:06:38.348Z,0.14
2019-02-18T09:11:41.847Z,0.24
2019-02-18T09:16:45.346Z,0.42
2019-02-18T09:21:48.907Z,0.78
2019-02-18T09:26:52.377Z,1.21
2019-02-18T09:31:55.901Z,2.04
2019-02-18T09:36:59.434Z,2.86
2019-02-18T09:42:02.884Z,2.71
2019-02-18T09:47:06.304Z,3.08
2019-02-18T09:52:09.730Z,3.18
2019-02-18T09:57:13.296Z,3.46
2019-02-18T10:02:16.811Z,3.59
2019-02-18T10:07:20.364Z,4.08
2019-02-18T10:12:23.787Z,4.26
2019-02-18T10:17:27.193Z,4.52
2019-02-18T10:22:30.684Z,5.06
2019-02-18T10:27:34.362Z,5.59
2019-02-18T10:32:37.933Z,5.86
2019-02-18T10:37:54.814Z,5.87
2019-02-18T10:42:51.105Z,6.27
2019-02-18T10:47:54.677Z,6.25
2019-02-18T10:52:58.316Z,6.87
2019-02-18T10:58:01.890Z,7.22
2019-02-18T11:03:05.451Z,6.97
2019-02-18T11:08:08.921Z,7.42
2019-02-18T11:13:12.352Z,7.32
2019-02-18T11:18:15.859Z,7.85
2019-02-18T11:23:20.316Z,7.84
2019-02-18T11:28:23.957Z,8.20
2019-02-18T11:33:27.490Z,8.35
2019-02-18T11:38:31.063Z,9.13
2019-02-18T11:43:34.470Z,9.38
2019-02-18T11:48:37.987Z,9.74
2019-02-18T11:53:41.540Z,10.72
2019-02-18T11:58:44.996Z,11.28
2019-02-18T12:03:48.711Z,11.23
2019-02-18T12:08:52.354Z,10.26
2019-02-18T12:13:55.835Z,12.39
2019-02-18T12:18:59.260Z,11.71
2019-02-18T12:24:02.653Z,13.07
2019-02-18T12:29:06.068Z,12.25
2019-02-18T12:34:09.464Z,12.82
2019-02-18T12:39:14.811Z,12.07
2019-02-18T12:44:18.254Z,11.94
2019-02-18T12:49:21.767Z,13.79
2019-02-18T12:54:25.209Z,14.03
2019-02-18T12:59:29.136Z,12.73
2019-02-18T13:04:32.323Z,13.43
2019-02-18T13:09:35.857Z,14.16
2019-02-18T13:14:39.265Z,14.24
2019-02-18T13:19:42.756Z,14.16
2019-02-18T13:24:46.154Z,13.84
2019-02-18T13:29:49.657Z,14.66
2019-02-18T13:34:53.079Z,13.57
2019-02-18T13:39:56.515Z,14.79
2019-02-18T13:45:00.039Z,14.25
2019-02-18T13:50:03.504Z,14.53
2019-02-18T13:55:07.231Z,14.94
2019-02-18T14:00:17.800Z,14.73
2019-02-18T14:05:21.360Z,14.96
2019-02-18T14:10:24.756Z,14.22
2019-02-18T14:15:28.260Z,14.47
2019-02-18T14:20:31.690Z,15.68
2019-02-18T14:25:35.135Z,15.38
2019-02-18T14:30:38.622Z,14.34
2019-02-18T14:35:42.112Z,16.37
2019-02-18T14:40:45.564Z,15.61
2019-02-18T14:45:49.081Z,14.98
2019-02-18T14:50:56.709Z,15.28
2019-02-18T14:55:56.044Z,14.87
2019-02-18T15:00:59.579Z,15.03
2019-02-18T15:06:03.158Z,13.87
2019-02-18T15:11:07.791Z,14.13
2019-02-18T15:16:11.239Z,13.55
2019-02-18T15:21:14.899Z,12.85
2019-02-18T15:26:18.367Z,13.54
2019-02-18T15:31:21.933Z,12.45
2019-02-18T15:36:25.398Z,12.41
2019-02-18T15:41:29.087Z,12.42
2019-02-18T15:46:32.540Z,11.73
2019-02-18T15:51:36.009Z,11.17
2019-02-18T15:56:39.453Z,11.09
2019-02-18T16:01:42.947Z,10.75
2019-02-18T16:06:46.509Z,9.93
2019-02-18T16:11:50.307Z,9.55
2019-02-18T16:16:53.846Z,9.18
2019-02-18T16:21:57.424Z,8.59
2019-02-18T16:27:00.965Z,8.41
2019-02-18T16:32:04.565Z,8.08
2019-02-18T16:37:08.169Z,7.27
2019-02-18T16:42:11.712Z,7.16
2019-02-18T16:47:15.175Z,7.00
2019-02-18T16:52:18.611Z,6.74
2019-02-18T16:57:22.194Z,6.36
2019-02-18T17:02:25.621Z,5.97
2019-02-18T17:07:29.142Z,5.78
2019-02-18T17:12:32.670Z,5.36
2019-02-18T17:17:36.096Z,5.22
2019-02-18T17:22:39.566Z,4.67
2019-02-18T17:27:43.087Z,4.50
2019-02-18T17:32:46.529Z,4.31
2019-02-18T17:37:49.993Z,3.84
2019-02-18T17:42:53.509Z,3.94
2019-02-18T17:47:56.994Z,3.70
2019-02-18T17:53:00.502Z,3.44
2019-02-18T17:58:03.987Z,3.34
2019-02-18T18:03:07.549Z,3.26
2019-02-18T18:08:11.172Z,3.20
2019-02-18T18:13:14.601Z,2.88
2019-02-18T18:18:18.053Z,2.73
2019-02-18T18:23:21.548Z,2.64
2019-02-18T18:28:25.659Z,2.50
2019-02-18T18:33:29.566Z,2.19
2019-02-18T18:38:33.197Z,2.00
2019-02-18T18:43:36.916Z,1.91
2019-02-18T18:48:40.677Z,1.61
2019-02-18T18:53:44.206Z,1.57
2019-02-18T18:58:47.843Z,1.27
2019-02-18T19:03:51.406Z,1.23
2019-02-18T19:08:55.583Z,1.18
2019-02-18T19:13:59.091Z,1.02
2019-02-18T19:19:02.930Z,0.89
2019-02-18T19:24:06.136Z,0.74
2019-02-18T19:29:09.912Z,0.65
2019-02-18T19:34:13.725Z,0.38
2019-02-18T19:39:17.587Z,0.38
2019-02-18T19:44:22.048Z,0.30
2019-02-18T19:49:25.812Z,0.06
2019-02-18T19:54:29.428Z,0.10
2019-02-18T19:59:33.176Z,-0.11
2019-02-18T20:04:36.748Z,-0.20
2019-02-18T20:09:40.401Z,-0.24
2019-02-18T20:14:44.216Z,-0.36
2019-02-18T20:19:47.744Z,-0.46
2019-02-18T20:24:51.305Z,-0.46
2019-02-18T20:29:54.787Z,-0.48
2019-02-18T20:34:58.750Z,-0.64
2019-02-18T20:40:02.339Z,-0.77
2019-02-18T20:45:06.426Z,-0.70
2019-02-18T20:50:10.533Z,-0.93
2019-02-18T20:55:14.582Z,-0.97
2019-02-18T21:00:19.721Z,-0.92
2019-02-18T21:05:26.352Z,-0.99
2019-02-18T21:10:29.886Z,-1.06
2019-02-18T21:15:33.659Z,-1.09
2019-02-18T21:20:37.224Z,-1.21
2019-02-18T21:25:40.693Z,-1.21
2019-02-18T21:30:44.160Z,-1.40
2019-02-18T21:35:47.598Z,-1.40
2019-02-18T21:40:51.038Z,-1.50
2019-02-18T21:45:54.533Z,-1.61
2019-02-18T21:50:57.968Z,-1.63
2019-02-18T21:56:01.548Z,-1.78
2019-02-18T22:01:05.426Z,-1.76
2019-02-18T22:06:09.306Z,-1.81
2019-02-18T22:11:13.182Z,-1.82
2019-02-18T22:16:16.979Z,-1.78
2019-02-18T22:21:21.512Z,-1.96
2019-02-18T22:26:25.277Z,-2.10
2019-02-18T22:31:28.758Z,-2.03
2019-02-18T22:36:32.195Z,-2.14
2019-02-18T22:41:35.612Z,-2.22
2019-02-18T22:46:39.126Z,-2.16
2019-02-18T22:51:42.729Z,-2.32
2019-02-18T22:56:46.253Z,-2.42
2019-02-18T23:01:49.645Z,-2.34
2019-02-18T23:06:53.038Z,-2.32
2019-02-18T23:11:56.428Z,-2.46
2019-02-18T23:16:59.856Z,-2.52
2019-02-18T23:22:03.267Z,-2.65
2019-02-18T23:27:06.716Z,-2.61
2019-02-18T23:32:10.128Z,-2.57
2019-02-18T23:37:13.536Z,-2.71
2019-02-18T23:42:16.938Z,-2.75
2019-02-18T23:47:20.425Z,-2.78
2019-02-18T23:52:23.839Z,-2.80
2019-02-18T23:57:27.255Z,-2.84
